Time;durP1;ratioP1;P1;durP2;ratioP2;P2;SDS_P1;SDS_P2;PMS_P1;PMS_P2;Temp;Humidity;BMP_temperature;BMP_pressure;BME280_temperature;BME280_humidity;BME280_pressure;Samples;Min_cycle;Max_cycle;Signal;HPM_P1;HPM_P2
2022/04/04 00:01:04;;;;;;;8.82;5.00;;;3.00;99.90;;;;;;5149231;27;20533;-59
2022/04/04 00:03:30;;;;;;;9.90;5.97;;;3.00;99.90;;;;;;5143016;27;20036;-59
2022/04/04 00:05:56;;;;;;;9.07;4.97;;;3.00;99.90;;;;;;5143331;27;20075;-60
2022/04/04 00:08:22;;;;;;;9.00;4.93;;;3.00;99.90;;;;;;5153529;27;20026;-59
2022/04/04 00:10:47;;;;;;;9.13;5.93;;;3.00;99.90;;;;;;5152734;27;20601;-59
2022/04/04 00:13:13;;;;;;;7.22;5.15;;;3.10;99.90;;;;;;5153607;27;20490;-59
2022/04/04 00:15:38;;;;;;;6.70;4.65;;;3.10;99.90;;;;;;5153004;27;20026;-62
2022/04/04 00:18:08;;;;;;;7.43;5.07;;;3.10;99.90;;;;;;5153078;27;20022;-59
2022/04/04 00:20:34;;;;;;;6.85;5.28;;;3.10;99.90;;;;;;5152177;27;20058;-59
2022/04/04 00:22:59;;;;;;;7.80;5.00;;;3.10;99.90;;;;;;5153067;27;20063;-59
2022/04/04 00:25:25;;;;;;;8.80;5.18;;;3.00;99.90;;;;;;5153545;27;20484;-60
2022/04/04 00:27:51;;;;;;;10.48;5.38;;;3.00;99.90;;;;;;5153059;27;20023;-59
2022/04/04 00:30:17;;;;;;;7.35;5.13;;;3.10;99.90;;;;;;5152150;27;20100;-58
2022/04/04 00:32:43;;;;;;;7.20;4.78;;;3.00;99.90;;;;;;5152719;27;20025;-58
2022/04/04 00:35:09;;;;;;;10.85;5.18;;;3.00;99.90;;;;;;5139674;27;20479;-59
2022/04/04 00:37:37;;;;;;;8.07;5.60;;;3.10;99.90;;;;;;5151544;27;20115;-59
2022/04/04 00:40:06;;;;;;;8.48;4.60;;;3.00;99.90;;;;;;5152182;27;20093;-58
2022/04/04 00:42:32;;;;;;;8.67;5.77;;;3.00;99.90;;;;;;5151161;27;20447;-58
2022/04/04 00:44:58;;;;;;;9.25;4.85;;;3.10;99.90;;;;;;5151009;27;20367;-58
2022/04/04 00:47:23;;;;;;;8.07;5.15;;;3.00;99.90;;;;;;5152430;27;20102;-59
2022/04/04 00:49:49;;;;;;;7.40;4.95;;;3.00;99.90;;;;;;5151689;27;20022;-58
2022/04/04 00:52:15;;;;;;;10.15;4.97;;;3.00;99.90;;;;;;5152506;27;20019;-58
2022/04/04 00:54:41;;;;;;;7.45;5.43;;;3.10;99.90;;;;;;5152717;27;20034;-58
2022/04/04 00:57:06;;;;;;;6.95;4.97;;;3.00;99.90;;;;;;5152283;27;20030;-58
2022/04/04 00:59:34;;;;;;;8.13;5.20;;;3.00;99.90;;;;;;5151660;27;20041;-59
2022/04/04 01:02:00;;;;;;;6.10;4.55;;;3.00;99.90;;;;;;5150874;27;20427;-59
2022/04/04 01:04:26;;;;;;;6.88;5.07;;;3.00;99.90;;;;;;5145336;27;20069;-59
2022/04/04 01:06:52;;;;;;;7.68;5.20;;;3.00;99.90;;;;;;5145106;27;20097;-58
2022/04/04 01:09:18;;;;;;;7.45;5.00;;;2.90;99.90;;;;;;5151280;27;20391;-59
2022/04/04 01:12:12;;;;;;;8.88;4.82;;;3.00;99.90;;;;;;5151852;27;20071;-59
2022/04/04 01:14:45;;;;;;;9.55;5.82;;;3.00;99.90;;;;;;5151930;27;20030;-59
2022/04/04 01:17:11;;;;;;;8.05;5.50;;;3.00;99.90;;;;;;5150614;27;20019;-59
2022/04/04 01:19:36;;;;;;;10.38;5.43;;;3.00;99.90;;;;;;5150743;27;20029;-58
2022/04/04 01:22:07;;;;;;;11.30;5.38;;;3.00;99.90;;;;;;5150682;27;20015;-58
2022/04/04 01:24:33;;;;;;;8.07;5.80;;;3.00;99.90;;;;;;5151566;27;20702;-58
2022/04/04 01:26:59;;;;;;;10.80;5.68;;;3.00;99.90;;;;;;5151541;27;20027;-58
2022/04/04 01:29:24;;;;;;;10.13;5.50;;;3.00;99.90;;;;;;5151078;27;20022;-58
2022/04/04 01:31:51;;;;;;;7.55;5.32;;;3.00;99.90;;;;;;5151626;27;20272;-58
2022/04/04 01:34:21;;;;;;;9.57;6.20;;;3.00;99.90;;;;;;5147378;27;20057;-58
2022/04/04 01:36:47;;;;;;;9.00;5.95;;;3.10;99.90;;;;;;5143866;27;20253;-58
2022/04/04 01:39:13;;;;;;;10.73;5.85;;;3.00;99.90;;;;;;5149338;27;20501;-58
2022/04/04 01:41:38;;;;;;;8.38;6.10;;;3.00;99.90;;;;;;5151509;27;20090;-58
2022/04/04 01:44:04;;;;;;;15.57;6.30;;;3.00;99.90;;;;;;5151371;27;20015;-58
2022/04/04 01:46:30;;;;;;;11.95;6.82;;;3.00;99.90;;;;;;5151135;27;20026;-58
2022/04/04 01:48:58;;;;;;;10.57;6.07;;;3.10;99.90;;;;;;5148862;27;20027;-58
2022/04/04 01:51:24;;;;;;;13.45;7.20;;;3.10;99.90;;;;;;5151036;27;20055;-59
2022/04/04 01:53:50;;;;;;;11.60;6.75;;;3.10;99.90;;;;;;5151183;27;20019;-58
2022/04/04 01:56:16;;;;;;;9.18;6.38;;;3.10;99.90;;;;;;5151418;27;20031;-58
2022/04/04 01:58:42;;;;;;;8.95;6.38;;;3.00;99.90;;;;;;5150568;27;20015;-58
2022/04/04 02:01:14;;;;;;;8.90;6.43;;;3.10;99.90;;;;;;5151539;27;20027;-58
2022/04/04 02:03:41;;;;;;;12.77;6.60;;;3.10;99.90;;;;;;5145850;27;20056;-58
2022/04/04 02:06:07;;;;;;;12.57;7.22;;;3.10;99.90;;;;;;5142117;27;20456;-58
2022/04/04 02:08:33;;;;;;;10.07;6.97;;;3.00;99.90;;;;;;5150473;27;20101;-58
2022/04/04 02:11:00;;;;;;;12.82;7.57;;;3.00;99.90;;;;;;5149276;27;20310;-59
2022/04/04 02:13:25;;;;;;;16.08;8.27;;;2.90;99.90;;;;;;5149390;27;20026;-59
2022/04/04 02:15:57;;;;;;;10.65;7.65;;;2.90;99.90;;;;;;5150688;27;20035;-59
2022/04/04 02:18:23;;;;;;;11.50;7.15;;;3.00;99.90;;;;;;5150543;27;20295;-59
2022/04/04 02:20:49;;;;;;;13.35;7.55;;;2.90;99.90;;;;;;5150122;27;20160;-59
2022/04/04 02:23:18;;;;;;;11.75;7.22;;;2.90;99.90;;;;;;5150605;27;20027;-59
2022/04/04 02:25:44;;;;;;;11.70;7.25;;;3.00;99.90;;;;;;5150554;27;20491;-58
2022/04/04 02:28:11;;;;;;;9.43;7.00;;;3.00;99.90;;;;;;5150550;27;20510;-59
2022/04/04 02:30:36;;;;;;;12.52;7.50;;;3.00;99.90;;;;;;5149595;27;20471;-59
2022/04/04 02:33:02;;;;;;;9.43;7.07;;;3.00;99.90;;;;;;5150153;27;20030;-59
2022/04/04 02:35:27;;;;;;;11.23;7.88;;;3.00;99.90;;;;;;5140048;27;20027;-58
2022/04/04 02:37:53;;;;;;;14.45;7.40;;;3.00;99.90;;;;;;5150147;27;20029;-59
2022/04/04 02:40:19;;;;;;;11.65;7.95;;;3.00;99.90;;;;;;5149460;27;20023;-58
2022/04/04 02:42:46;;;;;;;13.68;8.13;;;3.00;99.90;;;;;;5150292;27;20076;-59
2022/04/04 02:45:12;;;;;;;13.00;7.80;;;3.00;99.90;;;;;;5150235;27;20026;-58
2022/04/04 02:47:38;;;;;;;12.55;7.53;;;3.00;99.90;;;;;;5150224;27;20098;-59
2022/04/04 02:50:05;;;;;;;10.13;7.35;;;3.00;99.90;;;;;;5149296;27;20462;-59
2022/04/04 02:52:30;;;;;;;10.73;7.55;;;3.00;99.90;;;;;;5149904;27;20031;-59
2022/04/04 02:54:56;;;;;;;20.70;7.80;;;3.00;99.90;;;;;;5148826;27;20238;-59
2022/04/04 02:57:21;;;;;;;10.70;7.63;;;3.00;99.90;;;;;;5150068;27;20022;-59
2022/04/04 02:59:47;;;;;;;14.23;8.50;;;3.10;99.90;;;;;;5149417;27;20066;-59
2022/04/04 03:02:13;;;;;;;14.57;8.90;;;3.10;99.90;;;;;;5120352;27;20027;-59
2022/04/04 03:04:40;;;;;;;12.82;7.72;;;3.10;99.90;;;;;;5117550;27;20058;-60
2022/04/04 03:07:07;;;;;;;14.25;7.88;;;3.00;99.90;;;;;;5120341;27;20076;-59
2022/04/04 03:09:32;;;;;;;11.45;8.25;;;3.10;99.90;;;;;;5116791;27;20015;-59
2022/04/04 03:11:58;;;;;;;14.82;8.82;;;3.10;99.90;;;;;;5119023;27;20023;-59
2022/04/04 03:14:23;;;;;;;14.02;8.25;;;3.20;99.90;;;;;;5117128;27;20027;-59
2022/04/04 03:16:49;;;;;;;13.40;8.63;;;3.10;99.90;;;;;;5115219;28;20476;-59
2022/04/04 03:19:14;;;;;;;12.13;8.05;;;3.10;99.90;;;;;;5114960;28;20020;-59
2022/04/04 03:21:40;;;;;;;12.98;8.48;;;3.20;99.90;;;;;;5129199;27;20385;-59
2022/04/04 03:24:06;;;;;;;12.93;8.57;;;3.20;99.90;;;;;;5129168;27;20035;-59
2022/04/04 03:26:32;;;;;;;12.52;8.80;;;3.20;99.90;;;;;;5129022;28;20061;-59
2022/04/04 03:28:57;;;;;;;14.30;8.73;;;3.20;99.90;;;;;;5127133;27;20027;-59
2022/04/04 03:31:23;;;;;;;16.65;8.88;;;3.20;99.90;;;;;;5128792;27;20030;-59
2022/04/04 03:33:48;;;;;;;13.05;8.85;;;3.20;99.90;;;;;;5132942;27;20018;-59
2022/04/04 03:36:14;;;;;;;14.20;9.05;;;3.20;99.90;;;;;;5141190;27;20390;-59
2022/04/04 03:38:40;;;;;;;17.98;9.18;;;3.20;99.90;;;;;;5149138;27;20023;-58
2022/04/04 03:41:06;;;;;;;15.80;10.10;;;3.20;99.90;;;;;;5153024;27;20023;-58
2022/04/04 03:43:31;;;;;;;19.85;10.48;;;3.20;99.90;;;;;;5153744;27;20027;-58
2022/04/04 03:45:57;;;;;;;15.95;10.63;;;3.30;99.90;;;;;;5153300;27;20027;-58
2022/04/04 03:48:22;;;;;;;14.75;10.27;;;3.20;99.90;;;;;;5153412;27;20019;-59
2022/04/04 03:50:51;;;;;;;15.65;10.52;;;3.20;99.90;;;;;;5152447;27;20414;-58
2022/04/04 03:53:17;;;;;;;17.25;11.25;;;3.20;99.90;;;;;;5145087;27;20023;-58
2022/04/04 03:55:43;;;;;;;16.92;11.77;;;3.20;99.90;;;;;;5113010;27;20031;-58
2022/04/04 03:58:10;;;;;;;17.42;11.48;;;3.20;99.90;;;;;;5112032;27;20077;-58
2022/04/04 04:00:37;;;;;;;16.80;11.75;;;3.20;99.90;;;;;;5113864;27;20049;-58
2022/04/04 04:03:03;;;;;;;18.58;12.80;;;3.20;99.90;;;;;;5110598;28;20500;-58
2022/04/04 04:05:29;;;;;;;18.67;12.23;;;3.20;99.90;;;;;;5140417;27;20023;-59
2022/04/04 04:07:54;;;;;;;18.17;12.40;;;3.20;99.90;;;;;;5151571;27;20046;-58
2022/04/04 04:10:21;;;;;;;21.20;13.73;;;3.10;99.90;;;;;;5152192;27;20021;-59
2022/04/04 04:12:48;;;;;;;18.75;13.68;;;3.10;99.90;;;;;;5147487;27;20046;-59
2022/04/04 04:15:17;;;;;;;20.70;13.93;;;3.10;99.90;;;;;;5136453;27;20019;-58
2022/04/04 04:17:43;;;;;;;19.65;13.57;;;3.10;99.90;;;;;;5111675;28;20470;-58
2022/04/04 04:20:26;;;;;;;24.73;14.07;;;3.10;99.90;;;;;;5110836;28;20034;-61
2022/04/04 04:22:55;;;;;;;18.25;13.88;;;3.20;99.90;;;;;;5111559;28;20357;-60
2022/04/04 04:25:23;;;;;;;25.60;14.98;;;3.20;99.90;;;;;;5111545;28;20077;-59
2022/04/04 04:27:49;;;;;;;22.50;15.13;;;3.20;99.90;;;;;;5111455;27;20027;-59
2022/04/04 04:30:16;;;;;;;23.95;14.88;;;3.10;99.90;;;;;;5110294;28;20102;-59
2022/04/04 04:32:46;;;;;;;23.08;15.70;;;3.10;99.90;;;;;;5111570;27;20097;-58
2022/04/04 04:35:12;;;;;;;21.33;15.80;;;3.10;99.90;;;;;;5111610;28;20015;-58
2022/04/04 04:37:38;;;;;;;23.90;16.98;;;3.00;99.90;;;;;;5111550;28;20092;-59
2022/04/04 04:40:05;;;;;;;21.55;14.95;;;3.10;99.90;;;;;;5110812;28;20385;-58
2022/04/04 04:42:32;;;;;;;27.33;18.52;;;3.10;99.90;;;;;;5111666;28;20557;-58
2022/04/04 04:44:57;;;;;;;23.90;16.33;;;3.10;99.90;;;;;;5133662;27;20492;-58
2022/04/04 04:47:23;;;;;;;26.05;18.20;;;3.10;99.90;;;;;;5148357;27;20033;-58
2022/04/04 04:49:48;;;;;;;24.55;16.70;;;3.10;99.90;;;;;;5150732;27;20104;-58
2022/04/04 04:52:15;;;;;;;25.63;17.20;;;3.10;99.90;;;;;;5110223;28;20063;-58
2022/04/04 04:54:42;;;;;;;28.90;18.70;;;3.10;99.90;;;;;;5109683;28;20024;-57
2022/04/04 04:57:08;;;;;;;28.92;18.08;;;3.10;99.90;;;;;;5111139;28;20024;-57
2022/04/04 04:59:34;;;;;;;26.05;17.75;;;3.20;99.90;;;;;;5109791;28;20448;-57
2022/04/04 05:02:00;;;;;;;27.63;18.55;;;3.10;99.90;;;;;;5110520;28;20059;-57
2022/04/04 05:04:25;;;;;;;24.90;18.20;;;3.10;99.90;;;;;;5112985;27;20016;-58
2022/04/04 05:06:51;;;;;;;27.70;19.27;;;3.10;99.90;;;;;;5142828;27;20408;-57
2022/04/04 05:09:17;;;;;;;28.67;18.13;;;3.10;99.90;;;;;;5151283;27;20031;-57
2022/04/04 05:11:43;;;;;;;27.83;18.75;;;3.10;99.90;;;;;;5128689;27;20039;-58
2022/04/04 05:14:15;;;;;;;26.13;18.02;;;3.10;99.90;;;;;;5121588;27;20015;-57
2022/04/04 05:16:44;;;;;;;26.40;18.52;;;3.00;99.90;;;;;;5121215;27;20015;-57
2022/04/04 05:19:11;;;;;;;26.23;18.13;;;3.00;99.90;;;;;;5123100;27;20034;-57
2022/04/04 05:21:38;;;;;;;25.35;18.10;;;3.10;99.90;;;;;;5127766;27;20026;-58
2022/04/04 05:24:07;;;;;;;26.80;18.98;;;3.20;99.90;;;;;;5120420;27;20487;-57
2022/04/04 05:26:33;;;;;;;23.83;17.33;;;3.10;99.90;;;;;;5119010;27;20091;-57
2022/04/04 05:28:59;;;;;;;24.27;18.00;;;3.10;99.90;;;;;;5120237;27;20265;-58
2022/04/04 05:31:24;;;;;;;26.55;18.10;;;3.10;99.90;;;;;;5118508;27;20059;-58
2022/04/04 05:33:51;;;;;;;26.70;17.60;;;3.10;99.90;;;;;;5123526;27;20103;-57
2022/04/04 05:36:16;;;;;;;21.73;16.83;;;3.20;99.90;;;;;;5141747;27;20133;-58
2022/04/04 05:38:42;;;;;;;22.48;16.90;;;3.20;99.90;;;;;;5129188;27;20039;-58
2022/04/04 05:41:08;;;;;;;23.25;16.40;;;3.20;99.90;;;;;;5113086;27;20085;-58
2022/04/04 05:43:33;;;;;;;22.17;15.98;;;3.20;99.90;;;;;;5116623;27;20020;-58
2022/04/04 05:45:59;;;;;;;24.38;15.77;;;3.30;99.90;;;;;;5137333;27;20027;-57
2022/04/04 05:48:30;;;;;;;24.25;16.02;;;3.30;99.90;;;;;;5137752;27;20068;-58
2022/04/04 05:50:56;;;;;;;23.98;16.42;;;3.40;99.90;;;;;;5121538;27;20437;-58
2022/04/04 05:53:21;;;;;;;22.70;15.63;;;3.50;99.90;;;;;;5130274;27;20024;-57
2022/04/04 05:55:47;;;;;;;26.70;16.38;;;3.50;99.90;;;;;;5125308;27;20035;-58
2022/04/04 05:58:12;;;;;;;23.27;15.75;;;3.50;99.90;;;;;;5121835;27;20030;-58
2022/04/04 06:00:38;;;;;;;22.10;15.45;;;3.60;99.90;;;;;;5129613;27;20077;-57
2022/04/04 06:03:03;;;;;;;24.35;15.48;;;3.60;99.90;;;;;;5108643;28;20428;-57
2022/04/04 06:05:30;;;;;;;20.92;15.48;;;3.60;99.90;;;;;;5129923;27;20035;-58
2022/04/04 06:07:56;;;;;;;27.20;16.25;;;3.60;99.90;;;;;;5136163;27;20019;-57
2022/04/04 06:10:21;;;;;;;23.80;15.90;;;3.60;99.90;;;;;;5132987;27;20035;-58
2022/04/04 06:12:47;;;;;;;22.67;14.52;;;3.70;99.90;;;;;;5120433;27;20028;-58
2022/04/04 06:15:15;;;;;;;19.17;14.85;;;3.70;99.90;;;;;;5111993;27;20440;-58
2022/04/04 06:17:42;;;;;;;21.13;14.50;;;3.80;99.90;;;;;;5129782;27;20079;-58
2022/04/04 06:20:08;;;;;;;21.50;14.32;;;3.80;99.90;;;;;;5121080;27;20023;-58
2022/04/04 06:22:36;;;;;;;19.20;13.23;;;3.90;99.90;;;;;;5110376;27;20024;-58
2022/04/04 06:25:02;;;;;;;21.95;14.35;;;4.00;99.90;;;;;;5124871;27;20031;-58
2022/04/04 06:27:27;;;;;;;17.67;12.32;;;4.10;99.90;;;;;;5118244;27;20023;-58
2022/04/04 06:29:53;;;;;;;20.58;12.75;;;4.20;99.90;;;;;;5120568;27;20050;-58
2022/04/04 06:32:18;;;;;;;16.27;11.15;;;4.10;99.90;;;;;;5118632;27;20081;-58
2022/04/04 06:34:44;;;;;;;18.73;12.30;;;4.20;99.90;;;;;;5117944;27;20024;-58
2022/04/04 06:37:10;;;;;;;21.40;11.27;;;4.30;99.90;;;;;;5119440;27;20094;-58
2022/04/04 06:39:37;;;;;;;15.45;12.13;;;4.30;99.90;;;;;;5120967;27;20054;-62
2022/04/04 06:42:03;;;;;;;20.33;11.02;;;4.30;99.90;;;;;;5118435;27;20492;-58
2022/04/04 06:44:29;;;;;;;14.02;10.13;;;4.60;99.90;;;;;;5121435;27;20024;-59
2022/04/04 06:46:56;;;;;;;18.05;10.63;;;4.70;99.90;;;;;;5123603;27;20042;-60
2022/04/04 06:49:22;;;;;;;16.17;10.02;;;4.70;99.90;;;;;;5117893;27;20023;-58
2022/04/04 06:51:51;;;;;;;15.25;9.75;;;4.80;99.90;;;;;;5118956;27;20403;-58
2022/04/04 06:54:18;;;;;;;17.30;10.18;;;4.90;99.90;;;;;;5118844;27;20044;-58
2022/04/04 06:56:45;;;;;;;11.90;8.85;;;4.80;99.90;;;;;;5121733;27;20023;-58
2022/04/04 06:59:11;;;;;;;13.27;9.45;;;4.80;99.90;;;;;;5120109;27;20139;-58
2022/04/04 07:01:37;;;;;;;12.40;8.70;;;4.80;99.90;;;;;;5119279;28;20449;-58
2022/04/04 07:04:03;;;;;;;14.23;10.18;;;4.80;99.90;;;;;;5118292;28;20088;-58
2022/04/04 07:06:29;;;;;;;11.13;8.40;;;4.90;99.90;;;;;;5119826;27;20027;-59
2022/04/04 07:08:54;;;;;;;14.80;9.15;;;5.00;99.90;;;;;;5120487;27;20028;-58
2022/04/04 07:11:20;;;;;;;14.70;8.73;;;5.00;99.90;;;;;;5118595;27;20020;-58
2022/04/04 07:13:49;;;;;;;14.07;8.95;;;5.00;99.90;;;;;;5119363;27;20115;-58
2022/04/04 07:16:15;;;;;;;14.15;8.35;;;5.20;99.90;;;;;;5122696;27;20022;-58
2022/04/04 07:18:41;;;;;;;11.77;8.18;;;5.20;99.90;;;;;;5121011;27;20118;-58
2022/04/04 07:21:06;;;;;;;11.48;7.85;;;5.30;99.90;;;;;;5124903;27;20106;-59
2022/04/04 07:23:32;;;;;;;11.95;8.27;;;5.40;99.90;;;;;;5122884;27;20058;-58
2022/04/04 07:25:57;;;;;;;11.23;8.05;;;5.40;99.90;;;;;;5124897;27;20516;-58
2022/04/04 07:28:23;;;;;;;12.68;8.45;;;5.40;99.90;;;;;;5123878;27;20023;-58
2022/04/04 07:30:50;;;;;;;13.35;8.75;;;5.20;99.90;;;;;;5122768;27;20021;-58
2022/04/04 07:33:17;;;;;;;13.43;9.40;;;5.20;99.90;;;;;;5122312;27;20019;-58
2022/04/04 07:35:43;;;;;;;12.68;9.45;;;5.30;99.90;;;;;;5120996;27;20031;-59
2022/04/04 07:38:10;;;;;;;15.40;8.95;;;5.20;99.90;;;;;;5121785;27;20426;-59
2022/04/04 07:40:35;;;;;;;12.75;8.70;;;5.30;99.90;;;;;;5119716;27;20043;-59
2022/04/04 07:43:01;;;;;;;15.32;9.70;;;5.30;99.90;;;;;;5123737;27;20026;-59
2022/04/04 07:45:29;;;;;;;13.13;8.73;;;5.30;99.90;;;;;;5122164;27;20477;-57
2022/04/04 07:47:55;;;;;;;15.10;9.05;;;5.40;99.90;;;;;;5124939;27;20011;-58
2022/04/04 07:50:21;;;;;;;15.90;9.40;;;5.50;99.90;;;;;;5124380;27;20072;-58
2022/04/04 07:52:46;;;;;;;12.93;9.13;;;5.70;99.90;;;;;;5130440;27;20055;-58
2022/04/04 07:55:12;;;;;;;12.82;8.60;;;5.70;99.90;;;;;;5129084;27;20023;-58
2022/04/04 07:57:39;;;;;;;18.08;9.73;;;5.90;99.90;;;;;;5132522;27;20034;-58
2022/04/04 08:00:07;;;;;;;14.88;8.70;;;6.00;99.90;;;;;;5132843;27;20098;-58
2022/04/04 08:02:32;;;;;;;14.98;8.85;;;6.10;99.90;;;;;;5133662;27;20110;-58
2022/04/04 08:04:58;;;;;;;11.43;8.73;;;6.00;99.90;;;;;;5133966;27;20153;-59
2022/04/04 08:07:23;;;;;;;12.40;8.95;;;6.00;99.50;;;;;;5128909;27;20023;-58
2022/04/04 08:09:49;;;;;;;12.77;8.38;;;5.80;99.50;;;;;;5111775;27;20098;-58
2022/04/04 08:12:14;;;;;;;12.98;9.52;;;6.10;99.00;;;;;;5128488;27;20023;-58
2022/04/04 08:14:40;;;;;;;16.25;8.85;;;6.00;98.80;;;;;;5116624;27;20434;-58
2022/04/04 08:17:08;;;;;;;12.30;9.07;;;6.10;98.40;;;;;;5111731;27;20027;-58
2022/04/04 08:19:35;;;;;;;14.80;9.70;;;6.20;98.60;;;;;;5114969;27;20073;-59
2022/04/04 08:22:01;;;;;;;14.70;8.90;;;6.30;97.80;;;;;;5133407;27;20072;-59
2022/04/04 08:24:27;;;;;;;15.30;8.95;;;6.20;98.30;;;;;;5133212;27;20502;-59
2022/04/04 08:26:53;;;;;;;16.70;10.13;;;6.10;98.50;;;;;;5130040;27;20032;-59
2022/04/04 08:29:19;;;;;;;14.52;9.68;;;6.10;98.50;;;;;;5132075;27;20019;-57
2022/04/04 08:31:44;;;;;;;14.77;9.68;;;6.10;98.30;;;;;;5131756;27;20249;-57
2022/04/04 08:34:10;;;;;;;17.05;8.95;;;6.20;98.50;;;;;;5111440;27;20027;-59
2022/04/04 08:36:36;;;;;;;13.15;9.27;;;6.20;98.40;;;;;;5126084;27;20034;-59
2022/04/04 08:39:03;;;;;;;15.88;9.02;;;6.20;98.30;;;;;;5110877;28;20084;-59
2022/04/04 08:41:32;;;;;;;13.60;8.48;;;6.10;97.80;;;;;;5126622;27;20031;-59
2022/04/04 08:44:02;;;;;;;10.85;8.55;;;6.10;98.10;;;;;;5132096;27;20039;-59
2022/04/04 08:46:29;;;;;;;11.63;8.13;;;6.20;98.00;;;;;;5112158;27;20384;-59
2022/04/04 08:48:58;;;;;;;12.52;8.27;;;6.30;97.80;;;;;;5121480;27;20032;-59
2022/04/04 08:51:24;;;;;;;11.55;7.32;;;6.30;97.30;;;;;;5126403;27;20067;-59
2022/04/04 08:53:50;;;;;;;9.32;7.18;;;6.40;96.90;;;;;;5131348;27;20019;-56
2022/04/04 08:56:17;;;;;;;17.30;7.53;;;6.40;96.80;;;;;;5126054;27;20065;-51
2022/04/04 08:58:43;;;;;;;10.95;7.63;;;6.50;96.00;;;;;;5128599;27;20130;-52
2022/04/04 09:01:09;;;;;;;10.65;7.30;;;6.60;96.00;;;;;;5113987;27;20516;-52
2022/04/04 09:03:34;;;;;;;10.48;7.32;;;6.70;95.30;;;;;;5125682;27;20504;-51
2022/04/04 09:06:05;;;;;;;13.13;7.80;;;6.70;96.00;;;;;;5130902;27;20070;-51
2022/04/04 09:08:48;;;;;;;11.02;7.18;;;6.60;95.50;;;;;;5131044;27;20018;-48
2022/04/04 09:11:14;;;;;;;9.82;6.97;;;6.70;95.00;;;;;;5126155;27;20047;-59
2022/04/04 09:13:41;;;;;;;11.32;7.07;;;6.70;95.10;;;;;;5112605;27;20073;-59
2022/04/04 09:16:08;;;;;;;10.82;6.55;;;6.70;94.70;;;;;;5110441;28;20107;-59
2022/04/04 09:18:36;;;;;;;9.63;6.38;;;6.60;94.80;;;;;;5113146;27;20035;-59
2022/04/04 09:21:07;;;;;;;12.55;6.40;;;6.60;94.40;;;;;;5110593;28;20402;-59
2022/04/04 09:23:34;;;;;;;9.40;6.63;;;6.70;94.00;;;;;;5110480;28;20015;-59
2022/04/04 09:26:00;;;;;;;9.43;6.15;;;6.60;94.20;;;;;;5125852;27;20038;-59
2022/04/04 09:28:27;;;;;;;10.25;6.32;;;6.60;93.60;;;;;;5130873;27;20488;-59
2022/04/04 09:31:08;;;;;;;9.13;6.22;;;6.40;94.80;;;;;;5118768;27;20024;-59
2022/04/04 09:33:41;;;;;;;10.80;6.93;;;6.50;94.60;;;;;;5122583;27;20020;-51
2022/04/04 09:36:08;;;;;;;10.75;6.60;;;6.60;94.30;;;;;;5121183;27;20505;-47
2022/04/04 09:38:34;;;;;;;11.45;6.45;;;6.70;94.20;;;;;;5119628;27;20027;-50
2022/04/04 09:41:15;;;;;;;9.65;6.45;;;6.70;94.10;;;;;;5120762;27;20437;-50
2022/04/04 09:43:50;;;;;;;14.82;6.78;;;6.30;94.50;;;;;;5120548;27;20027;-49
2022/04/04 09:46:15;;;;;;;13.55;6.85;;;6.50;95.20;;;;;;5125904;27;20027;-49
2022/04/04 09:49:00;;;;;;;9.52;7.13;;;6.40;94.90;;;;;;5119432;27;20024;-49
2022/04/04 09:51:39;;;;;;;14.45;7.20;;;6.50;94.80;;;;;;5121643;27;20219;-51
2022/04/04 09:54:08;;;;;;;10.27;7.30;;;6.70;95.10;;;;;;5120298;27;20026;-51
2022/04/04 09:56:34;;;;;;;15.70;6.68;;;6.80;94.10;;;;;;5121233;27;20047;-50
2022/04/04 09:59:03;;;;;;;22.33;7.05;;;6.80;93.60;;;;;;5119251;27;20062;-49
2022/04/04 10:01:30;;;;;;;10.45;6.45;;;6.80;93.40;;;;;;5119146;27;20415;-48
2022/04/04 10:03:57;;;;;;;12.65;6.97;;;6.90;93.60;;;;;;5122302;27;20110;-49
2022/04/04 10:06:28;;;;;;;8.65;5.90;;;7.00;93.50;;;;;;5118489;27;20007;-50
2022/04/04 10:08:56;;;;;;;10.80;6.35;;;7.00;93.20;;;;;;5119264;27;20019;-51
2022/04/04 10:11:23;;;;;;;10.60;6.25;;;7.10;93.10;;;;;;5122438;27;20504;-48
2022/04/04 10:13:49;;;;;;;8.00;5.93;;;7.20;92.40;;;;;;5121066;27;20031;-49
2022/04/04 10:16:16;;;;;;;10.10;6.45;;;7.40;92.80;;;;;;5120096;27;20020;-49
2022/04/04 10:18:45;;;;;;;13.60;5.75;;;7.50;92.00;;;;;;5119379;27;20072;-49
2022/04/04 10:21:11;;;;;;;11.65;6.97;;;7.20;92.00;;;;;;5119620;27;20023;-49
2022/04/04 10:23:39;;;;;;;9.65;6.32;;;7.30;92.10;;;;;;5120165;27;20023;-51
2022/04/04 10:26:07;;;;;;;9.18;6.07;;;7.50;91.70;;;;;;5124006;27;20057;-49
2022/04/04 10:28:35;;;;;;;8.38;5.88;;;7.60;91.30;;;;;;5120098;27;20033;-49
2022/04/04 10:31:15;;;;;;;13.35;6.53;;;7.70;92.80;;;;;;5119506;27;20019;-49
2022/04/04 10:33:41;;;;;;;10.73;6.13;;;7.80;92.40;;;;;;5119215;27;20346;-49
2022/04/04 10:36:10;;;;;;;11.13;6.35;;;7.80;92.00;;;;;;5119807;27;20051;-47
2022/04/04 10:38:50;;;;;;;12.55;6.80;;;7.70;91.90;;;;;;5121093;27;20023;-50
2022/04/04 10:41:21;;;;;;;9.68;6.45;;;7.60;93.00;;;;;;5121369;27;20026;-51
2022/04/04 10:43:51;;;;;;;9.98;7.45;;;7.40;94.00;;;;;;5118215;27;20027;-50
2022/04/04 10:46:19;;;;;;;9.43;6.40;;;7.20;94.50;;;;;;5119613;27;20031;-49
2022/04/04 10:48:52;;;;;;;8.80;6.10;;;7.00;95.60;;;;;;5119104;27;20020;-50
2022/04/04 10:51:34;;;;;;;14.25;7.90;;;6.70;97.20;;;;;;5122489;27;20015;-50
2022/04/04 10:54:10;;;;;;;9.30;7.10;;;6.60;98.00;;;;;;5119622;27;20016;-48
2022/04/04 10:56:41;;;;;;;30.25;18.42;;;6.60;98.90;;;;;;5118039;27;20067;-49
2022/04/04 10:59:16;;;;;;;51.53;26.38;;;6.80;99.30;;;;;;5116732;28;20416;-51
2022/04/04 11:01:46;;;;;;;10.52;7.47;;;6.80;99.10;;;;;;5118756;28;20043;-52
2022/04/04 11:04:29;;;;;;;10.45;7.53;;;6.70;98.90;;;;;;5120256;27;20016;-50
2022/04/04 11:09:56;;;;;;;10.55;7.25;;;6.40;99.90;;;;;;5119607;27;20030;-52
2022/04/04 11:12:25;;;;;;;11.68;7.13;;;6.30;99.90;;;;;;5117216;27;20089;-50
2022/04/04 11:15:01;;;;;;;11.02;7.70;;;6.30;99.90;;;;;;5121763;27;20030;-50
2022/04/04 11:17:31;;;;;;;12.52;7.55;;;6.20;99.90;;;;;;5120203;28;20099;-47
2022/04/04 11:20:21;;;;;;;12.13;7.93;;;6.10;99.90;;;;;;5117093;27;20068;-47
2022/04/04 11:22:52;;;;;;;10.00;7.57;;;6.10;99.90;;;;;;5120149;27;20148;-50
2022/04/04 11:25:21;;;;;;;;;;;6.10;99.90;;;;;;5117266;27;20042;-51
2022/04/04 11:27:48;;;;;;;10.63;7.28;;;6.20;99.90;;;;;;5125612;27;20507;-49
2022/04/04 11:30:16;;;;;;;12.35;7.97;;;6.20;99.90;;;;;;5116001;27;20022;-50
2022/04/04 11:32:43;;;;;;;14.48;8.35;;;6.00;99.90;;;;;;5118440;27;20022;-51
2022/04/04 11:35:20;;;;;;;14.27;8.63;;;6.00;99.90;;;;;;5117899;28;20054;-50
2022/04/04 11:37:51;;;;;;;13.13;8.43;;;5.90;99.90;;;;;;5120045;27;20053;-51
2022/04/04 11:40:29;;;;;;;12.27;8.57;;;5.80;99.90;;;;;;5118742;27;20364;-50
2022/04/04 11:42:56;;;;;;;12.25;9.15;;;5.70;99.90;;;;;;5120540;28;20031;-48
2022/04/04 11:45:24;;;;;;;10.80;8.60;;;5.60;99.90;;;;;;5119178;28;20020;-51
2022/04/04 11:48:00;;;;;;;12.88;9.10;;;5.50;99.90;;;;;;5118582;27;20020;-50
2022/04/04 11:50:28;;;;;;;13.48;9.98;;;5.50;99.90;;;;;;5120250;27;20087;-52
2022/04/04 11:52:59;;;;;;;13.50;8.68;;;5.40;99.90;;;;;;5119777;28;20028;-51
2022/04/04 11:55:25;;;;;;;16.55;9.90;;;5.40;99.90;;;;;;5119621;28;20011;-48
2022/04/04 11:57:57;;;;;;;15.43;11.10;;;5.30;99.90;;;;;;5120951;27;20011;-50
2022/04/04 12:00:24;;;;;;;16.50;10.27;;;5.20;99.90;;;;;;5119191;27;20532;-58
2022/04/04 12:02:50;;;;;;;16.92;11.15;;;5.10;99.90;;;;;;5122611;27;20077;-58
2022/04/04 12:05:21;;;;;;;14.00;11.73;;;4.90;99.90;;;;;;5124531;27;20035;-58
2022/04/04 12:07:47;;;;;;;17.95;11.02;;;4.90;99.90;;;;;;5122721;27;20024;-58
2022/04/04 12:10:16;;;;;;;16.75;12.18;;;4.90;99.90;;;;;;5125060;27;20023;-58
2022/04/04 12:12:42;;;;;;;18.38;11.98;;;4.80;99.90;;;;;;5128728;27;20034;-58
2022/04/04 12:15:08;;;;;;;19.38;11.80;;;4.80;99.90;;;;;;5115999;27;20088;-57
2022/04/04 12:17:34;;;;;;;17.13;13.23;;;4.70;99.90;;;;;;5123045;27;20019;-48
2022/04/04 12:19:59;;;;;;;17.20;12.80;;;4.70;99.90;;;;;;5130797;27;20023;-47
2022/04/04 12:25:21;;;;;;;17.48;13.45;;;4.70;99.90;;;;;;5105213;27;20039;-50
2022/04/04 12:28:00;;;;;;;20.95;13.35;;;4.70;99.90;;;;;;5123783;27;20035;-51
2022/04/04 12:30:34;;;;;;;20.15;13.43;;;4.70;99.90;;;;;;5114129;27;20555;-50
2022/04/04 12:33:08;;;;;;;22.88;16.15;;;4.60;99.90;;;;;;5123960;27;20023;-58
2022/04/04 12:35:40;;;;;;;18.58;13.82;;;4.50;99.90;;;;;;5132027;27;20098;-60
2022/04/04 12:38:06;;;;;;;20.40;15.40;;;4.50;99.90;;;;;;5131802;27;20019;-60
2022/04/04 12:40:32;;;;;;;23.55;14.88;;;4.50;99.90;;;;;;5131153;27;20072;-58
2022/04/04 12:43:09;;;;;;;21.95;15.10;;;4.40;99.90;;;;;;5122667;27;20030;-58
2022/04/04 12:45:45;;;;;;;20.63;15.75;;;4.40;99.90;;;;;;5129095;27;20030;-59
2022/04/04 12:48:11;;;;;;;25.67;16.65;;;4.30;99.90;;;;;;5113570;27;20024;-59
2022/04/04 12:50:48;;;;;;;23.23;15.75;;;4.30;99.90;;;;;;5109595;27;20023;-59
2022/04/04 12:53:16;;;;;;;25.05;15.25;;;4.30;99.90;;;;;;5111451;28;20031;-59